createdAt,value
2019-05-16T00:00:25.341Z,96642.35
2019-05-16T00:02:58.645Z,96634.93
2019-05-16T00:05:28.126Z,96626.13
2019-05-16T00:07:59.049Z,96624.38
2019-05-16T00:10:28.675Z,96620.77
2019-05-16T00:12:59.676Z,96616.11
2019-05-16T00:15:28.932Z,96609.23
2019-05-16T00:18:03.453Z,96609.23
2019-05-16T00:20:33.460Z,96605.34
2019-05-16T00:23:02.570Z,96605.46
2019-05-16T00:25:31.616Z,96599.33
2019-05-16T00:28:02.720Z,96597.20
2019-05-16T00:30:31.500Z,96592.80
2019-05-16T00:33:02.207Z,96604.81
2019-05-16T00:35:31.257Z,96601.61
2019-05-16T00:38:03.439Z,96588.19
2019-05-16T00:40:35.188Z,96587.67
2019-05-16T00:43:08.039Z,96586.43
2019-05-16T00:45:38.525Z,96586.15
2019-05-16T00:48:09.060Z,96581.73
2019-05-16T00:50:41.603Z,96582.47
2019-05-16T00:53:14.907Z,96582.90
2019-05-16T00:55:48.075Z,96581.02
2019-05-16T00:58:19.006Z,96582.30
2019-05-16T01:00:51.376Z,96581.02
2019-05-16T01:03:23.486Z,96516.75
2019-05-16T01:05:52.617Z,96575.89
2019-05-16T01:08:21.711Z,96572.38
2019-05-16T01:10:51.446Z,96571.59
2019-05-16T01:13:23.041Z,96566.85
2019-05-16T01:15:57.926Z,96567.80
2019-05-16T01:18:28.827Z,96564.88
2019-05-16T01:20:58.619Z,96558.66
2019-05-16T01:23:32.331Z,96557.69
2019-05-16T01:26:01.630Z,96560.51
2019-05-16T01:28:33.321Z,96565.50
2019-05-16T01:31:02.546Z,96561.52
2019-05-16T01:33:31.592Z,96559.62
2019-05-16T01:36:00.639Z,96560.34
2019-05-16T01:38:30.874Z,96562.86
2019-05-16T01:40:59.935Z,96562.86
2019-05-16T01:43:28.988Z,96561.27
2019-05-16T01:45:59.912Z,96359.95
2019-05-16T01:48:29.381Z,96555.77
2019-05-16T01:50:58.699Z,96554.59
2019-05-16T01:53:28.195Z,96551.19
2019-05-16T01:56:01.680Z,96554.88
2019-05-16T01:58:30.917Z,96554.28
2019-05-16T02:01:11.555Z,96557.86
2019-05-16T02:03:34.035Z,96552.04
2019-05-16T02:06:04.082Z,96548.63
2019-05-16T02:08:33.265Z,96539.92
2019-05-16T02:11:02.346Z,95244.75
2019-05-16T02:13:32.294Z,96533.14
2019-05-16T02:16:01.418Z,96537.47
2019-05-16T02:18:31.472Z,96525.17
2019-05-16T02:21:01.293Z,96523.45
2019-05-16T02:23:30.668Z,96523.97
2019-05-16T02:26:01.807Z,96539.42
2019-05-16T02:28:40.215Z,96524.00
2019-05-16T02:31:03.687Z,96517.08
2019-05-16T02:33:32.770Z,96518.47
2019-05-16T02:36:04.874Z,96520.03
2019-05-16T02:38:34.453Z,96521.83
2019-05-16T02:41:03.678Z,96515.25
2019-05-16T02:43:32.799Z,96519.48
2019-05-16T02:46:04.587Z,96510.73
2019-05-16T02:48:35.739Z,96510.09
2019-05-16T02:51:05.145Z,96501.52
2019-05-16T02:53:34.238Z,96501.31
2019-05-16T02:56:06.228Z,96500.67
2019-05-16T02:58:35.370Z,96495.99
2019-05-16T03:01:04.534Z,96495.71
2019-05-16T03:03:33.666Z,96492.63
2019-05-16T03:06:05.624Z,96491.55
2019-05-16T03:08:35.041Z,96494.09
2019-05-16T03:11:06.456Z,96481.64
2019-05-16T03:13:38.080Z,96487.94
2019-05-16T03:16:12.650Z,96473.98
2019-05-16T03:18:41.851Z,96469.63
2019-05-16T03:21:13.492Z,96462.48
2019-05-16T03:23:42.975Z,96467.62
2019-05-16T03:26:13.640Z,96466.57
2019-05-16T03:28:47.161Z,96466.26
2019-05-16T03:31:16.266Z,96461.16
2019-05-16T03:33:52.218Z,96458.89
2019-05-16T03:36:24.253Z,96451.71
2019-05-16T03:38:50.699Z,96452.25
2019-05-16T03:41:21.836Z,96449.11
2019-05-16T03:43:51.111Z,96451.88
2019-05-16T03:46:21.519Z,96454.23
2019-05-16T03:48:52.211Z,96449.11
2019-05-16T03:51:21.910Z,96454.44
2019-05-16T03:53:53.158Z,96459.02
2019-05-16T03:56:24.922Z,96456.21
2019-05-16T03:58:54.020Z,96451.64
2019-05-16T04:01:23.096Z,96444.86
2019-05-16T04:03:52.146Z,96448.66
2019-05-16T04:06:22.114Z,96444.41
2019-05-16T04:08:52.212Z,96443.39
2019-05-16T04:11:23.582Z,96436.54
2019-05-16T04:13:52.890Z,96446.64
2019-05-16T04:16:22.107Z,96445.28
2019-05-16T04:18:51.640Z,96437.53
2019-05-16T04:21:21.835Z,96435.66
2019-05-16T04:23:51.299Z,96433.48
2019-05-16T04:26:23.623Z,96433.64
2019-05-16T04:28:52.675Z,96439.77
2019-05-16T04:31:23.169Z,96536.30
2019-05-16T04:33:55.776Z,96439.07
2019-05-16T04:36:26.404Z,96443.34
2019-05-16T04:38:55.432Z,96437.70
2019-05-16T04:41:26.074Z,96444.25
2019-05-16T04:43:55.177Z,96439.77
2019-05-16T04:46:24.268Z,96440.94
2019-05-16T04:48:55.730Z,96444.66
2019-05-16T04:51:24.801Z,96438.47
2019-05-16T04:53:55.927Z,96443.42
2019-05-16T04:56:26.764Z,96440.64
2019-05-16T04:58:57.051Z,96437.79
2019-05-16T05:01:30.502Z,96433.48
2019-05-16T05:04:09.689Z,96435.80
2019-05-16T05:06:31.327Z,96430.03
2019-05-16T05:09:04.747Z,96426.75
2019-05-16T05:11:33.920Z,96432.13
2019-05-16T05:14:03.055Z,96429.87
2019-05-16T05:16:32.677Z,96434.67
2019-05-16T05:19:11.133Z,96429.11
2019-05-16T05:21:41.500Z,96431.25
2019-05-16T05:24:16.395Z,96427.98
2019-05-16T05:26:45.681Z,96425.69
2019-05-16T05:29:20.012Z,96424.05
2019-05-16T05:31:54.668Z,96416.22
2019-05-16T05:34:22.905Z,96422.09
2019-05-16T05:36:53.717Z,96422.94
2019-05-16T05:39:23.977Z,96426.60
2019-05-16T05:41:53.060Z,96421.81
2019-05-16T05:44:24.101Z,96423.69
2019-05-16T05:47:01.764Z,96428.52
2019-05-16T05:49:30.917Z,96424.81
2019-05-16T05:52:00.926Z,96136.47
2019-05-16T05:54:30.816Z,96430.16
2019-05-16T05:57:00.682Z,96424.75
2019-05-16T05:59:36.521Z,96433.62
2019-05-16T06:02:11.049Z,96424.56
2019-05-16T06:04:41.878Z,96422.75
2019-05-16T06:07:11.259Z,96426.41
2019-05-16T06:09:52.836Z,96510.86
2019-05-16T06:12:11.893Z,96424.45
2019-05-16T06:14:44.621Z,96424.83
2019-05-16T06:17:13.797Z,96417.35
2019-05-16T06:19:42.869Z,96421.16
2019-05-16T06:22:11.954Z,96421.61
2019-05-16T06:24:42.873Z,96417.95
2019-05-16T06:27:11.974Z,96418.20
2019-05-16T06:29:41.044Z,96419.23
2019-05-16T06:32:11.302Z,96421.16
2019-05-16T06:34:50.766Z,96423.63
2019-05-16T06:37:21.187Z,96424.67
2019-05-16T06:39:52.764Z,96421.73
2019-05-16T06:42:22.603Z,96421.06
2019-05-16T06:44:55.132Z,96419.19
2019-05-16T06:47:26.215Z,96410.77
2019-05-16T06:49:55.396Z,96417.41
2019-05-16T06:52:24.493Z,96413.69
2019-05-16T06:54:55.602Z,96414.20
2019-05-16T06:57:30.401Z,96410.94
2019-05-16T07:00:04.610Z,96412.76
2019-05-16T07:02:36.850Z,96405.66
2019-05-16T07:05:11.735Z,96403.11
2019-05-16T07:07:40.833Z,96405.50
2019-05-16T07:10:10.207Z,96399.16
2019-05-16T07:12:44.598Z,96398.89
2019-05-16T07:15:14.116Z,96398.11
2019-05-16T07:17:50.446Z,96398.34
2019-05-16T07:20:22.982Z,96399.66
2019-05-16T07:22:52.080Z,96399.89
2019-05-16T07:25:21.657Z,96402.31
2019-05-16T07:27:51.319Z,96401.23
2019-05-16T07:30:22.310Z,96397.56
2019-05-16T07:32:51.667Z,96396.73
2019-05-16T07:35:24.330Z,96390.84
2019-05-16T07:37:56.736Z,96395.54
2019-05-16T07:40:27.008Z,96389.64
2019-05-16T07:42:56.627Z,96384.41
2019-05-16T07:45:25.701Z,96380.95
2019-05-16T07:47:54.971Z,96380.98
2019-05-16T07:50:25.123Z,96380.27
2019-05-16T07:52:59.884Z,96379.94
2019-05-16T07:55:31.008Z,96384.16
2019-05-16T07:58:00.400Z,96388.99
2019-05-16T08:00:47.643Z,96386.58
2019-05-16T08:03:00.653Z,96380.52
2019-05-16T08:05:33.547Z,96422.06
2019-05-16T08:08:05.604Z,96380.34
2019-05-16T08:10:42.003Z,96370.53
2019-05-16T08:13:05.544Z,96363.58
2019-05-16T08:15:34.708Z,96366.37
2019-05-16T08:18:05.531Z,96367.19
2019-05-16T08:20:36.800Z,96366.68
2019-05-16T08:23:11.113Z,96376.55
2019-05-16T08:25:41.825Z,96373.62
2019-05-16T08:28:11.853Z,96371.78
2019-05-16T08:30:41.339Z,96369.58
2019-05-16T08:33:13.624Z,96363.55
2019-05-16T08:35:41.579Z,96365.14
2019-05-16T08:38:13.588Z,96368.53
2019-05-16T08:41:04.430Z,96368.13
2019-05-16T08:43:17.118Z,96368.30
2019-05-16T08:45:46.183Z,96360.98
2019-05-16T08:48:15.597Z,96438.45
2019-05-16T08:50:51.377Z,96356.98
2019-05-16T08:53:17.079Z,96350.52
2019-05-16T08:55:50.614Z,96348.53
2019-05-16T08:58:33.171Z,96348.07
2019-05-16T09:01:03.330Z,96339.09
2019-05-16T09:03:35.511Z,96331.87
2019-05-16T09:06:11.792Z,96333.72
2019-05-16T09:08:49.718Z,96333.33
2019-05-16T09:11:39.251Z,96413.30
2019-05-16T09:13:50.823Z,96327.69
2019-05-16T09:16:30.144Z,96326.17
2019-05-16T09:18:57.727Z,96320.05
2019-05-16T09:21:27.633Z,96316.72
2019-05-16T09:23:57.870Z,96318.54
2019-05-16T09:26:28.283Z,96312.48
2019-05-16T09:28:57.715Z,96308.16
2019-05-16T09:31:28.103Z,96301.66
2019-05-16T09:34:04.243Z,96301.25
2019-05-16T09:36:37.421Z,96306.70
2019-05-16T09:39:09.833Z,96302.41
2019-05-16T09:41:50.554Z,96300.05
2019-05-16T09:44:18.335Z,96297.39
2019-05-16T09:46:47.208Z,96293.19
2019-05-16T09:49:28.752Z,96292.67
2019-05-16T09:51:57.373Z,96290.92
2019-05-16T09:54:27.414Z,96278.77
2019-05-16T09:56:57.268Z,96274.85
2019-05-16T09:59:26.507Z,96272.19
2019-05-16T10:01:57.136Z,96274.56
2019-05-16T10:04:27.936Z,96275.52
2019-05-16T10:06:59.284Z,96034.34
2019-05-16T10:09:41.225Z,96271.89
2019-05-16T10:12:11.434Z,96276.47
2019-05-16T10:14:37.777Z,96261.58
2019-05-16T10:17:08.244Z,96256.73
2019-05-16T10:19:37.787Z,96261.34
2019-05-16T10:22:07.425Z,96208.54
2019-05-16T10:24:37.543Z,96257.83
2019-05-16T10:27:06.901Z,96250.09
2019-05-16T10:29:37.795Z,96252.25
2019-05-16T10:32:09.805Z,96248.16
2019-05-16T10:34:38.934Z,96243.64
2019-05-16T10:37:08.082Z,96238.36
2019-05-16T10:39:38.287Z,96241.82
2019-05-16T10:42:23.789Z,96322.78
2019-05-16T10:44:44.536Z,96235.56
2019-05-16T10:47:17.381Z,96229.30
2019-05-16T10:49:51.369Z,96223.95
2019-05-16T10:52:20.430Z,96231.62
2019-05-16T10:54:58.032Z,96227.95
2019-05-16T10:57:22.445Z,96227.30
2019-05-16T11:00:12.975Z,96218.48
2019-05-16T11:02:38.933Z,96213.30
2019-05-16T11:05:25.793Z,96214.32
2019-05-16T11:07:44.163Z,96211.16
2019-05-16T11:10:17.156Z,96201.96
2019-05-16T11:12:54.828Z,96198.68
2019-05-16T11:15:20.585Z,96203.73
2019-05-16T11:17:52.155Z,96201.02
2019-05-16T11:20:21.519Z,96196.56
2019-05-16T11:22:50.796Z,96196.57
2019-05-16T11:25:28.663Z,96193.39
2019-05-16T11:27:54.123Z,96194.62
2019-05-16T11:30:28.225Z,96193.91
2019-05-16T11:33:00.238Z,96189.00
2019-05-16T11:35:30.007Z,95933.84
2019-05-16T11:38:00.947Z,96184.75
2019-05-16T11:40:31.938Z,96003.48
2019-05-16T11:43:14.685Z,96181.91
2019-05-16T11:45:40.107Z,96186.02
2019-05-16T11:48:10.817Z,96184.03
2019-05-16T11:50:40.237Z,96177.92
2019-05-16T11:53:09.343Z,96173.15
2019-05-16T11:55:51.801Z,96175.59
2019-05-16T11:58:10.911Z,96173.06
2019-05-16T12:00:40.133Z,96170.95
2019-05-16T12:03:09.792Z,96170.07
2019-05-16T12:05:41.085Z,96166.06
2019-05-16T12:08:11.152Z,96161.60
2019-05-16T12:10:44.119Z,96159.22
2019-05-16T12:13:25.157Z,96153.52
2019-05-16T12:15:45.790Z,96155.12
2019-05-16T12:18:17.356Z,96232.41
2019-05-16T12:20:46.838Z,96149.31
2019-05-16T12:23:17.275Z,96151.91
2019-05-16T12:25:47.640Z,96154.59
2019-05-16T12:28:17.142Z,96155.34
2019-05-16T12:30:49.360Z,96148.12
2019-05-16T12:33:23.092Z,96152.34
2019-05-16T12:35:53.901Z,96146.30
2019-05-16T12:38:28.757Z,96143.23
2019-05-16T12:41:00.983Z,96143.97
2019-05-16T12:43:49.518Z,96145.80
2019-05-16T12:46:15.144Z,96139.73
2019-05-16T12:48:57.563Z,96144.20
2019-05-16T12:51:29.591Z,96135.20
2019-05-16T12:53:58.668Z,96138.88
2019-05-16T12:56:28.134Z,96136.55
2019-05-16T12:59:03.289Z,96137.25
2019-05-16T13:01:38.372Z,96136.80
2019-05-16T13:04:05.689Z,96132.61
2019-05-16T13:06:37.092Z,96122.94
2019-05-16T13:09:07.881Z,96128.83
2019-05-16T13:11:42.744Z,96121.41
2019-05-16T13:14:17.105Z,96114.80
2019-05-16T13:16:51.662Z,96114.19
2019-05-16T13:19:23.410Z,96108.77
2019-05-16T13:21:52.632Z,96100.36
2019-05-16T13:24:21.786Z,96104.30
2019-05-16T13:26:50.868Z,96101.23
2019-05-16T13:29:19.959Z,96097.78
2019-05-16T13:31:50.940Z,96100.34
2019-05-16T13:34:30.680Z,96094.13
2019-05-16T13:36:59.719Z,96095.22
2019-05-16T13:39:28.835Z,96098.59
2019-05-16T13:42:00.130Z,96086.67
2019-05-16T13:44:30.237Z,96082.39
2019-05-16T13:46:59.335Z,96037.05
2019-05-16T13:49:28.442Z,96075.06
2019-05-16T13:52:00.958Z,96075.92
2019-05-16T13:54:30.156Z,96078.40
2019-05-16T13:56:59.289Z,96075.34
2019-05-16T13:59:30.166Z,96068.14
2019-05-16T14:01:59.527Z,96075.15
2019-05-16T14:04:28.660Z,96062.75
2019-05-16T14:07:08.450Z,96062.73
2019-05-16T14:09:37.941Z,96056.27
2019-05-16T14:12:08.812Z,96057.17
2019-05-16T14:14:42.283Z,96057.06
2019-05-16T14:17:18.678Z,96056.12
2019-05-16T14:19:48.234Z,96051.30
2019-05-16T14:22:19.786Z,96048.27
2019-05-16T14:24:52.847Z,96045.66
2019-05-16T14:27:23.338Z,96041.65
2019-05-16T14:29:57.896Z,96041.77
2019-05-16T14:32:39.296Z,95979.86
2019-05-16T14:35:03.170Z,96036.84
2019-05-16T14:37:32.378Z,96036.17
2019-05-16T14:40:06.665Z,96036.19
2019-05-16T14:42:38.790Z,96030.61
2019-05-16T14:45:18.251Z,96026.27
2019-05-16T14:47:49.854Z,96029.49
2019-05-16T14:50:27.518Z,95736.17
2019-05-16T14:52:59.607Z,96029.73
2019-05-16T14:55:30.188Z,96027.28
2019-05-16T14:58:07.337Z,96030.00
2019-05-16T15:00:50.002Z,96028.31
2019-05-16T15:03:23.419Z,96029.27
2019-05-16T15:05:55.477Z,96015.00
2019-05-16T15:08:24.007Z,96012.89
2019-05-16T15:10:53.200Z,95999.55
2019-05-16T15:13:22.391Z,96002.09
2019-05-16T15:15:51.501Z,96002.19
2019-05-16T15:18:23.352Z,96004.00
2019-05-16T15:20:52.413Z,96001.70
2019-05-16T15:23:21.701Z,96000.05
2019-05-16T15:25:50.963Z,96004.82
2019-05-16T15:28:29.987Z,96006.75
2019-05-16T15:31:00.041Z,95998.72
2019-05-16T15:33:29.123Z,95984.18
2019-05-16T15:35:58.212Z,95985.89
2019-05-16T15:38:29.937Z,95985.73
2019-05-16T15:41:00.451Z,95986.65
2019-05-16T15:43:38.802Z,95986.47
2019-05-16T15:46:08.580Z,95980.46
2019-05-16T15:48:40.167Z,95983.38
2019-05-16T15:51:09.372Z,96057.70
2019-05-16T15:53:40.298Z,95983.94
2019-05-16T15:56:10.324Z,95987.55
2019-05-16T15:58:46.642Z,95982.91
2019-05-16T16:01:18.581Z,95968.48
2019-05-16T16:03:49.431Z,95968.89
2019-05-16T16:06:18.488Z,95967.83
2019-05-16T16:08:47.857Z,95968.16
2019-05-16T16:11:18.011Z,95965.18
2019-05-16T16:13:49.843Z,95960.69
2019-05-16T16:16:20.108Z,95961.46
2019-05-16T16:18:49.333Z,95965.64
2019-05-16T16:21:18.813Z,95958.81
2019-05-16T16:23:51.820Z,95952.70
2019-05-16T16:26:26.683Z,95955.45
2019-05-16T16:28:56.743Z,95959.05
2019-05-16T16:31:28.978Z,95957.19
2019-05-16T16:33:58.093Z,95950.48
2019-05-16T16:36:33.586Z,95948.48
2019-05-16T16:39:07.497Z,95951.69
2019-05-16T16:41:37.069Z,95952.67
2019-05-16T16:44:08.398Z,95955.00
2019-05-16T16:46:37.744Z,95956.24
2019-05-16T16:49:07.478Z,95954.05
2019-05-16T16:51:37.662Z,95963.60
2019-05-16T16:54:07.606Z,95957.88
2019-05-16T16:56:38.489Z,95954.47
2019-05-16T16:59:17.548Z,95950.04
2019-05-16T17:01:49.685Z,95947.18
2019-05-16T17:04:21.988Z,95958.97
2019-05-16T17:06:52.500Z,95955.22
2019-05-16T17:09:21.845Z,95949.16
2019-05-16T17:11:57.107Z,95954.00
2019-05-16T17:14:30.247Z,95959.91
2019-05-16T17:17:00.715Z,95943.72
2019-05-16T17:19:29.738Z,95946.28
2019-05-16T17:22:13.564Z,95944.27
2019-05-16T17:24:33.288Z,95939.80
2019-05-16T17:27:07.559Z,95940.69
2019-05-16T17:29:36.861Z,95939.09
2019-05-16T17:32:09.929Z,95938.00
2019-05-16T17:34:40.748Z,95930.70
2019-05-16T17:37:14.042Z,95930.91
2019-05-16T17:39:43.070Z,96041.13
2019-05-16T17:42:13.308Z,95933.13
2019-05-16T17:44:47.379Z,95936.08
2019-05-16T17:47:18.981Z,95933.83
2019-05-16T17:49:49.578Z,95933.30
2019-05-16T17:52:21.231Z,95931.58
2019-05-16T17:54:53.174Z,95931.78
2019-05-16T17:57:21.220Z,95937.12
2019-05-16T17:59:50.665Z,95936.78
2019-05-16T18:02:23.605Z,95930.73
2019-05-16T18:04:52.520Z,95933.64
2019-05-16T18:07:21.730Z,95931.63
2019-05-16T18:09:50.777Z,95934.44
2019-05-16T18:12:20.907Z,95935.83
2019-05-16T18:14:51.762Z,95934.47
2019-05-16T18:17:21.229Z,95928.28
2019-05-16T18:19:51.842Z,95927.05
2019-05-16T18:22:21.105Z,95921.14
2019-05-16T18:24:50.186Z,95925.97
2019-05-16T18:27:20.904Z,95925.02
2019-05-16T18:29:50.444Z,95667.95
2019-05-16T18:32:20.982Z,95929.97
2019-05-16T18:34:53.181Z,95931.20
2019-05-16T18:37:23.333Z,95919.55
2019-05-16T18:39:53.306Z,95914.28
2019-05-16T18:42:22.371Z,95915.98
2019-05-16T18:44:51.508Z,95912.04
2019-05-16T18:47:20.579Z,95913.90
2019-05-16T18:49:51.229Z,95915.57
2019-05-16T18:52:22.362Z,95914.55
2019-05-16T18:54:51.617Z,95910.68
2019-05-16T18:57:20.745Z,95915.21
2019-05-16T18:59:49.871Z,95907.36
2019-05-16T19:02:18.943Z,95907.66
2019-05-16T19:04:57.896Z,95906.49
2019-05-16T19:07:28.356Z,95903.33
2019-05-16T19:09:57.468Z,95906.28
2019-05-16T19:12:28.165Z,95902.13
2019-05-16T19:15:00.185Z,95904.03
2019-05-16T19:17:28.566Z,95907.27
2019-05-16T19:19:57.756Z,95900.98
2019-05-16T19:22:47.433Z,95902.88
2019-05-16T19:25:22.467Z,95901.09
2019-05-16T19:27:51.658Z,95899.08
2019-05-16T19:30:21.038Z,95900.86
2019-05-16T19:32:50.852Z,95903.46
2019-05-16T19:35:22.181Z,95898.96
2019-05-16T19:37:54.076Z,95918.04
2019-05-16T19:40:23.409Z,95906.88
2019-05-16T19:42:56.560Z,95904.02
2019-05-16T19:45:26.434Z,95904.83
2019-05-16T19:47:57.832Z,95903.43
2019-05-16T19:50:29.114Z,95904.89
2019-05-16T19:52:59.627Z,95901.48
2019-05-16T19:55:29.729Z,95907.62
2019-05-16T19:58:00.569Z,95907.37
2019-05-16T20:00:31.515Z,95904.45
2019-05-16T20:03:02.120Z,95907.95
2019-05-16T20:05:37.817Z,95910.94
2019-05-16T20:08:07.206Z,95912.14
2019-05-16T20:10:39.225Z,95911.19
2019-05-16T20:13:11.894Z,95911.95
2019-05-16T20:15:41.717Z,95909.29
2019-05-16T20:18:11.053Z,95902.50
2019-05-16T20:20:40.160Z,95869.48
2019-05-16T20:23:09.349Z,95908.55
2019-05-16T20:25:38.817Z,95906.68
2019-05-16T20:28:10.854Z,95899.83
2019-05-16T20:30:40.047Z,95902.19
2019-05-16T20:33:09.659Z,95903.20
2019-05-16T20:35:42.125Z,95901.97
2019-05-16T20:38:11.531Z,95904.68
2019-05-16T20:40:41.112Z,95908.69
2019-05-16T20:43:13.349Z,95912.24
2019-05-16T20:45:49.548Z,95908.45
2019-05-16T20:48:18.837Z,95913.67
2019-05-16T20:50:50.969Z,95909.80
2019-05-16T20:53:23.423Z,95910.53
2019-05-16T20:55:52.819Z,95911.20
2019-05-16T20:58:23.197Z,95905.88
2019-05-16T21:00:52.588Z,95907.68
2019-05-16T21:03:27.212Z,95909.30
2019-05-16T21:05:58.133Z,95905.82
2019-05-16T21:08:27.293Z,95903.36
2019-05-16T21:10:57.303Z,95910.77
2019-05-16T21:13:28.220Z,95908.48
2019-05-16T21:15:57.761Z,95647.30
2019-05-16T21:18:27.043Z,95901.18
2019-05-16T21:20:59.897Z,95900.91
2019-05-16T21:23:36.447Z,95894.52
2019-05-16T21:26:03.844Z,95897.69
2019-05-16T21:28:42.521Z,95895.25
2019-05-16T21:31:12.081Z,95897.78
2019-05-16T21:33:41.163Z,95889.69
2019-05-16T21:36:13.671Z,95891.17
2019-05-16T21:38:42.799Z,95881.74
2019-05-16T21:41:11.879Z,95879.34
2019-05-16T21:43:40.943Z,95875.14
2019-05-16T21:46:10.005Z,95873.00
2019-05-16T21:48:39.078Z,95862.84
2019-05-16T21:51:08.163Z,95858.30
2019-05-16T21:53:37.235Z,95854.06
2019-05-16T21:56:06.997Z,95848.49
2019-05-16T21:58:39.327Z,95848.15
2019-05-16T22:01:10.865Z,95848.31
2019-05-16T22:03:41.688Z,95851.02
2019-05-16T22:06:10.929Z,95849.86
2019-05-16T22:08:41.559Z,95848.66
2019-05-16T22:11:10.655Z,95841.54
2019-05-16T22:13:40.130Z,95839.22
2019-05-16T22:16:10.695Z,95840.86
2019-05-16T22:18:43.038Z,95833.84
2019-05-16T22:21:13.471Z,95831.73
2019-05-16T22:23:46.527Z,95827.66
2019-05-16T22:26:34.785Z,95828.05
2019-05-16T22:29:06.679Z,95829.71
2019-05-16T22:31:37.668Z,95825.06
2019-05-16T22:34:10.582Z,95821.02
2019-05-16T22:36:41.142Z,95816.68
2019-05-16T22:39:13.082Z,95815.11
2019-05-16T22:41:46.608Z,95813.36
2019-05-16T22:44:17.636Z,95807.79
2019-05-16T22:46:46.897Z,95806.88
2019-05-16T22:49:16.978Z,95806.16
2019-05-16T22:51:49.379Z,95799.17
2019-05-16T22:54:22.947Z,95797.29
2019-05-16T22:56:52.025Z,95792.52
2019-05-16T22:59:21.732Z,95785.55
2019-05-16T23:01:51.211Z,95788.05
2019-05-16T23:04:21.001Z,95782.64
2019-05-16T23:06:50.078Z,95781.97
2019-05-16T23:09:20.060Z,95782.31
2019-05-16T23:11:49.167Z,95774.12
2019-05-16T23:14:21.199Z,95772.50
2019-05-16T23:16:50.272Z,95773.63
2019-05-16T23:19:19.351Z,95769.61
2019-05-16T23:21:48.816Z,95762.97
2019-05-16T23:24:21.154Z,95767.64
2019-05-16T23:26:52.515Z,95764.94
2019-05-16T23:29:21.601Z,95762.54
2019-05-16T23:31:50.974Z,95757.42
2019-05-16T23:34:22.645Z,95761.27
2019-05-16T23:36:53.108Z,95763.63
2019-05-16T23:39:26.375Z,95758.55
2019-05-16T23:41:59.164Z,95758.16
2019-05-16T23:44:28.238Z,95757.52
2019-05-16T23:46:59.730Z,95757.36
2019-05-16T23:49:29.733Z,95757.31
2019-05-16T23:51:58.854Z,95756.56
2019-05-16T23:54:30.934Z,95758.02
2019-05-16T23:57:02.741Z,95748.55
2019-05-16T23:59:36.696Z,95748.80
